CHY weather

Coahuayana Airport
Michoacán, Mexico

Public forecast

Using degrees Celsius for public forecast. Weather courtesy of forecast.io.

Closest aviation weather report (METAR) to Coahuayana Airport

Report is more than 2 hours old.

Closest report is Licenciado Miguel de la Madrid Airport, 36.0 nm (66.7 km) N. Retrieved 2020/08/04 23:42 UTC (5 hours ago):

MMIA 042342Z 00000KT 4SM -TSRA BKN020CB 25/23 A2999 RMK 8/900 INTMT RA

Closest aviation forecast (TAF) to Coahuayana Airport

Forecast is more than 6 hours old.

Closest forecast is Licenciado Miguel de la Madrid Airport, 36.0 nm (66.7 km) N. Retrieved 2020/08/04 18:51 UTC (10 hours ago):

TAF MMIA 041648Z 0418/0518 21005KT 6SM HZ SCT020 SCT100 FM042100 23012KT P6SM BKN020CB BKN100 TEMPO 0422/0502 5SM TSRA FM050300 00000KT P6SM BKN020 BKN100 PROB40 0503/0507 6SM -RA FM050800 00000KT 6SM HZ SCT015 BKN100 TEMPO 0511/0515 3SM BR HZ BKN015